Irozaki, Japan

4:24 AM JST on November 01, 2014 (GMT +0900)
Shizuhama Aero | Change Station
CLOSE
Current Station
Airport
Location: Shizuhama AB,
Elevation: 33 ft
Nearby Weather Stations

Elev 33 ft 34.81 °N, 138.30 °E | Updated 2 hours ago

Light Rain
Light Rain
61 °F
Feels Like 61 °F
N
2
Wind Variable Wind from North

Today
High -- | Low -- °F
--% Chance of Precip.
Yesterday
High -- | Low -- °F
Precip. -- in
6:04 AM 4:51 PM
First Quarter, 58% visible
Pressure 30.09 in
Visibility 6.2 miles
Clouds Few 1500 ft
Mostly Cloudy 5000 ft
Overcast 10000 ft
Dew Point 57 °F
Humidity 88%
Rainfall 0.00 in
Snow Depth Not available.
UV 0 out of 12
Pollen Not available.
Air Quality Not available.
Flu Activity Not available.
SPECI RJNY 311719Z 35002KT 9999 -RA FEW015 BKN050 OVC100 16/14 Q1019 RMK 1CU015 6SC050 8AS100 A3012

More Conditions Fewer Conditions

Pressure 30.09 in
Visibility 6.2 miles
Clouds Few 1500 ft
Mostly Cloudy 5000 ft
Overcast 10000 ft
Dew Point 57 °F
Humidity 88%
Rainfall 0.00 in
Snow Depth Not available.
UV 0 out of 12
Pollen Not available.
Air Quality Not available.
Flu Activity Not available.
SPECI RJNY 311719Z 35002KT 9999 -RA FEW015 BKN050 OVC100 16/14 Q1019 RMK 1CU015 6SC050 8AS100 A3012

More Conditions Fewer Conditions

10-Day Weather Forecast

Almanac

Astronomy

Nov. 01, 2014 Rise Set
Actual Time
Civil Twilight
Nautical Twilight
Astronomical Twilight
Moon
Length of Visible Light
Length of Day
Tomorrow will be .
, % of the Moon is Illuminated

Today's Extremes

Country Highs Country Lows

Community

WunderPhotos

Upload Photos

1,766,699 photos uploaded!

WunderBlogs® & News

Nearby

Air Quality

  Air Quality AQ Index Pollutant
Not available.

Snow Depth

Station Depth Elevation

Earthquake Activity

City Distance Mag. Time & Date
Minimum magnitude displayed is 2.5.

Coastal Water Temperatures

Place Temperature

Nearby Weather Stations